sensor_id;sensor_type;location;lat;lon;timestamp;pressure;altitude;pressure_sealevel;temperature;humidity
24336;BME280;33098;52.400;16.880;2023-05-19T00:00:33;101898.92;;;13.30;51.36
24336;BME280;33098;52.400;16.880;2023-05-19T00:03:17;101901.70;;;13.23;51.37
24336;BME280;33098;52.400;16.880;2023-05-19T00:05:47;101901.91;;;13.19;51.52
24336;BME280;33098;52.400;16.880;2023-05-19T00:08:17;101898.35;;;13.22;51.62
24336;BME280;33098;52.400;16.880;2023-05-19T00:10:44;101892.27;;;13.28;51.76
24336;BME280;33098;52.400;16.880;2023-05-19T00:13:12;101893.04;;;13.28;51.62
24336;BME280;33098;52.400;16.880;2023-05-19T00:15:39;101894.22;;;13.22;51.65
24336;BME280;33098;52.400;16.880;2023-05-19T00:18:06;101894.26;;;13.19;51.77
24336;BME280;33098;52.400;16.880;2023-05-19T00:20:39;101891.46;;;13.16;51.81
24336;BME280;33098;52.400;16.880;2023-05-19T00:23:05;101887.85;;;13.09;51.80
24336;BME280;33098;52.400;16.880;2023-05-19T00:25:32;101888.37;;;13.06;51.91
24336;BME280;33098;52.400;16.880;2023-05-19T00:27:59;101884.52;;;13.11;51.83
24336;BME280;33098;52.400;16.880;2023-05-19T00:30:25;101884.49;;;13.16;51.97
24336;BME280;33098;52.400;16.880;2023-05-19T00:32:52;101879.01;;;13.18;51.86
24336;BME280;33098;52.400;16.880;2023-05-19T00:35:22;101880.36;;;13.14;51.74
24336;BME280;33098;52.400;16.880;2023-05-19T00:37:50;101879.11;;;13.09;51.88
24336;BME280;33098;52.400;16.880;2023-05-19T00:40:17;101879.80;;;13.04;52.01
24336;BME280;33098;52.400;16.880;2023-05-19T00:42:49;101877.40;;;13.02;52.03
24336;BME280;33098;52.400;16.880;2023-05-19T00:45:16;101880.15;;;13.04;52.11
24336;BME280;33098;52.400;16.880;2023-05-19T00:47:46;101876.96;;;12.96;52.02
24336;BME280;33098;52.400;16.880;2023-05-19T00:50:15;101877.29;;;12.93;52.18
24336;BME280;33098;52.400;16.880;2023-05-19T00:52:44;101878.55;;;12.93;52.24
24336;BME280;33098;52.400;16.880;2023-05-19T00:55:11;101877.86;;;12.89;52.25
24336;BME280;33098;52.400;16.880;2023-05-19T00:57:39;101875.42;;;12.89;52.33
24336;BME280;33098;52.400;16.880;2023-05-19T01:00:07;101876.67;;;12.81;52.29
24336;BME280;33098;52.400;16.880;2023-05-19T01:02:34;101872.22;;;12.81;52.49
24336;BME280;33098;52.400;16.880;2023-05-19T01:05:05;101871.24;;;12.79;52.52
24336;BME280;33098;52.400;16.880;2023-05-19T01:07:33;101873.23;;;12.79;52.56
24336;BME280;33098;52.400;16.880;2023-05-19T01:10:03;101875.30;;;12.77;52.66
24336;BME280;33098;52.400;16.880;2023-05-19T01:12:34;101872.72;;;12.68;52.67
24336;BME280;33098;52.400;16.880;2023-05-19T01:15:03;101876.61;;;12.54;52.79
24336;BME280;33098;52.400;16.880;2023-05-19T01:25:55;101887.23;;;12.38;53.33
24336;BME280;33098;52.400;16.880;2023-05-19T01:31:24;101889.98;;;12.31;53.69
24336;BME280;33098;52.400;16.880;2023-05-19T01:33:52;101891.59;;;12.34;53.67
24336;BME280;33098;52.400;16.880;2023-05-19T01:36:21;101894.13;;;12.39;53.69
24336;BME280;33098;52.400;16.880;2023-05-19T01:38:50;101897.73;;;12.41;53.70
24336;BME280;33098;52.400;16.880;2023-05-19T01:41:19;101895.05;;;12.47;53.77
24336;BME280;33098;52.400;16.880;2023-05-19T01:43:51;101899.66;;;12.47;53.68
24336;BME280;33098;52.400;16.880;2023-05-19T01:46:19;101903.57;;;12.44;53.74
24336;BME280;33098;52.400;16.880;2023-05-19T01:48:48;101904.77;;;12.42;53.80
24336;BME280;33098;52.400;16.880;2023-05-19T01:51:15;101905.42;;;12.43;53.86
24336;BME280;33098;52.400;16.880;2023-05-19T01:53:42;101907.27;;;12.45;53.91
24336;BME280;33098;52.400;16.880;2023-05-19T01:56:09;101911.69;;;12.42;53.90
24336;BME280;33098;52.400;16.880;2023-05-19T01:58:47;101911.48;;;12.40;53.97
24336;BME280;33098;52.400;16.880;2023-05-19T02:04:05;101903.71;;;12.25;54.23
24336;BME280;33098;52.400;16.880;2023-05-19T02:12:17;101903.13;;;12.23;54.63
24336;BME280;33098;52.400;16.880;2023-05-19T02:15:10;101903.46;;;12.18;54.72
24336;BME280;33098;52.400;16.880;2023-05-19T02:17:40;101902.61;;;12.17;54.89
24336;BME280;33098;52.400;16.880;2023-05-19T02:20:09;101897.78;;;12.23;55.00
24336;BME280;33098;52.400;16.880;2023-05-19T02:22:37;101904.29;;;12.27;54.90
24336;BME280;33098;52.400;16.880;2023-05-19T02:25:04;101899.52;;;12.26;55.04
24336;BME280;33098;52.400;16.880;2023-05-19T02:27:33;101902.55;;;12.23;54.96
24336;BME280;33098;52.400;16.880;2023-05-19T02:30:03;101900.48;;;12.22;55.05
24336;BME280;33098;52.400;16.880;2023-05-19T02:32:34;101900.09;;;12.23;55.19
24336;BME280;33098;52.400;16.880;2023-05-19T02:35:02;101896.84;;;12.18;55.21
24336;BME280;33098;52.400;16.880;2023-05-19T02:37:29;101895.94;;;12.12;55.21
24336;BME280;33098;52.400;16.880;2023-05-19T02:39:56;101894.04;;;12.03;55.29
24336;BME280;33098;52.400;16.880;2023-05-19T02:42:23;101895.92;;;11.99;55.54
24336;BME280;33098;52.400;16.880;2023-05-19T02:44:50;101897.81;;;11.97;55.64
24336;BME280;33098;52.400;16.880;2023-05-19T02:47:17;101895.91;;;11.95;55.77
24336;BME280;33098;52.400;16.880;2023-05-19T02:49:44;101892.09;;;11.97;55.79
24336;BME280;33098;52.400;16.880;2023-05-19T02:52:11;101894.55;;;12.01;55.84
24336;BME280;33098;52.400;16.880;2023-05-19T02:54:38;101894.50;;;12.01;55.88
24336;BME280;33098;52.400;16.880;2023-05-19T02:57:07;101895.64;;;12.00;55.84
24336;BME280;33098;52.400;16.880;2023-05-19T02:59:34;101900.55;;;11.98;55.97
24336;BME280;33098;52.400;16.880;2023-05-19T03:02:04;101896.58;;;11.97;56.01
24336;BME280;33098;52.400;16.880;2023-05-19T03:04:32;101896.14;;;11.91;56.06
24336;BME280;33098;52.400;16.880;2023-05-19T03:07:08;101897.57;;;11.94;56.20
24336;BME280;33098;52.400;16.880;2023-05-19T03:09:36;101893.83;;;11.98;56.27
24336;BME280;33098;52.400;16.880;2023-05-19T03:12:06;101893.04;;;11.96;56.21
24336;BME280;33098;52.400;16.880;2023-05-19T03:14:34;101889.12;;;11.96;56.35
24336;BME280;33098;52.400;16.880;2023-05-19T03:17:03;101885.34;;;12.00;56.44
24336;BME280;33098;52.400;16.880;2023-05-19T03:19:33;101889.58;;;12.00;56.52
24336;BME280;33098;52.400;16.880;2023-05-19T03:22:00;101887.59;;;12.04;56.52
24336;BME280;33098;52.400;16.880;2023-05-19T03:24:29;101882.73;;;12.10;56.63
24336;BME280;33098;52.400;16.880;2023-05-19T03:26:56;101881.98;;;12.14;56.60
24336;BME280;33098;52.400;16.880;2023-05-19T03:29:26;101883.19;;;12.17;56.59
24336;BME280;33098;52.400;16.880;2023-05-19T03:31:54;101882.70;;;12.22;56.56
24336;BME280;33098;52.400;16.880;2023-05-19T03:34:20;101883.30;;;12.21;56.48
24336;BME280;33098;52.400;16.880;2023-05-19T03:36:47;101883.54;;;12.17;56.58
24336;BME280;33098;52.400;16.880;2023-05-19T03:39:15;101884.95;;;12.15;56.63
24336;BME280;33098;52.400;16.880;2023-05-19T03:41:43;101887.05;;;12.18;56.60
24336;BME280;33098;52.400;16.880;2023-05-19T03:44:12;101886.20;;;12.23;56.73
24336;BME280;33098;52.400;16.880;2023-05-19T03:46:42;101885.77;;;12.24;56.70
24336;BME280;33098;52.400;16.880;2023-05-19T03:49:42;101889.53;;;12.21;56.80
24336;BME280;33098;52.400;16.880;2023-05-19T03:52:14;101883.99;;;12.18;56.77
24336;BME280;33098;52.400;16.880;2023-05-19T03:54:51;101891.54;;;12.23;56.88
24336;BME280;33098;52.400;16.880;2023-05-19T03:57:22;101894.48;;;12.27;56.86
24336;BME280;33098;52.400;16.880;2023-05-19T03:59:48;101894.41;;;12.32;56.89
24336;BME280;33098;52.400;16.880;2023-05-19T04:02:17;101892.35;;;12.31;56.82
24336;BME280;33098;52.400;16.880;2023-05-19T04:04:44;101893.40;;;12.31;56.85
24336;BME280;33098;52.400;16.880;2023-05-19T04:07:10;101894.61;;;12.29;56.86
24336;BME280;33098;52.400;16.880;2023-05-19T04:09:38;101892.70;;;12.30;56.91
24336;BME280;33098;52.400;16.880;2023-05-19T04:12:07;101893.31;;;12.35;56.93
24336;BME280;33098;52.400;16.880;2023-05-19T04:14:34;101891.95;;;12.37;57.05
24336;BME280;33098;52.400;16.880;2023-05-19T04:17:03;101894.26;;;12.37;57.12
24336;BME280;33098;52.400;16.880;2023-05-19T04:19:30;101894.45;;;12.36;57.03
24336;BME280;33098;52.400;16.880;2023-05-19T04:22:01;101895.79;;;12.35;57.10
24336;BME280;33098;52.400;16.880;2023-05-19T04:24:31;101896.45;;;12.44;57.26
24336;BME280;33098;52.400;16.880;2023-05-19T04:27:01;101895.19;;;12.45;57.15
24336;BME280;33098;52.400;16.880;2023-05-19T04:29:30;101897.09;;;12.48;57.27
24336;BME280;33098;52.400;16.880;2023-05-19T04:31:58;101899.54;;;12.54;57.25
24336;BME280;33098;52.400;16.880;2023-05-19T04:34:26;101896.92;;;12.59;57.29
24336;BME280;33098;52.400;16.880;2023-05-19T04:36:57;101890.37;;;12.67;57.10
24336;BME280;33098;52.400;16.880;2023-05-19T04:39:24;101895.48;;;12.73;57.13
24336;BME280;33098;52.400;16.880;2023-05-19T04:42:01;101892.75;;;12.74;57.18
24336;BME280;33098;52.400;16.880;2023-05-19T04:44:28;101898.16;;;12.77;57.00
24336;BME280;33098;52.400;16.880;2023-05-19T04:46:56;101898.86;;;12.82;57.26
24336;BME280;33098;52.400;16.880;2023-05-19T04:49:24;101895.14;;;12.81;57.18
24336;BME280;33098;52.400;16.880;2023-05-19T04:51:53;101895.55;;;12.86;57.27
24336;BME280;33098;52.400;16.880;2023-05-19T04:54:26;101898.42;;;12.91;57.18
24336;BME280;33098;52.400;16.880;2023-05-19T04:56:52;101901.92;;;12.98;57.20
24336;BME280;33098;52.400;16.880;2023-05-19T04:59:24;101904.34;;;13.02;57.12
24336;BME280;33098;52.400;16.880;2023-05-19T05:01:53;101903.95;;;13.00;57.20
24336;BME280;33098;52.400;16.880;2023-05-19T05:04:22;101908.40;;;13.00;57.32
24336;BME280;33098;52.400;16.880;2023-05-19T05:06:49;101910.45;;;13.04;57.48
24336;BME280;33098;52.400;16.880;2023-05-19T05:09:19;101912.71;;;13.13;57.43
24336;BME280;33098;52.400;16.880;2023-05-19T05:11:51;101911.02;;;13.19;57.34
24336;BME280;33098;52.400;16.880;2023-05-19T05:14:26;101911.95;;;13.24;57.38
24336;BME280;33098;52.400;16.880;2023-05-19T05:16:59;101911.41;;;13.33;57.27
24336;BME280;33098;52.400;16.880;2023-05-19T05:19:27;101910.80;;;13.37;57.35
24336;BME280;33098;52.400;16.880;2023-05-19T05:21:57;101911.71;;;13.47;57.34
24336;BME280;33098;52.400;16.880;2023-05-19T05:24:30;101905.09;;;13.58;57.30
24336;BME280;33098;52.400;16.880;2023-05-19T05:26:58;101906.81;;;13.64;57.16
24336;BME280;33098;52.400;16.880;2023-05-19T05:29:28;101905.50;;;13.68;57.12
24336;BME280;33098;52.400;16.880;2023-05-19T05:31:55;101903.02;;;13.73;57.05
24336;BME280;33098;52.400;16.880;2023-05-19T05:34:22;101910.80;;;13.79;57.12
24336;BME280;33098;52.400;16.880;2023-05-19T05:36:49;101906.44;;;13.88;57.09
24336;BME280;33098;52.400;16.880;2023-05-19T05:39:21;101902.65;;;13.91;56.95
24336;BME280;33098;52.400;16.880;2023-05-19T05:41:48;101901.46;;;13.96;57.10
24336;BME280;33098;52.400;16.880;2023-05-19T05:44:15;101898.37;;;14.04;57.05
24336;BME280;33098;52.400;16.880;2023-05-19T05:46:43;101895.83;;;14.12;56.99
24336;BME280;33098;52.400;16.880;2023-05-19T05:49:13;101898.08;;;14.18;56.98
24336;BME280;33098;52.400;16.880;2023-05-19T05:51:54;101898.38;;;14.21;57.03
24336;BME280;33098;52.400;16.880;2023-05-19T05:54:24;101898.46;;;14.26;56.92
24336;BME280;33098;52.400;16.880;2023-05-19T05:56:51;101901.69;;;14.28;56.96
24336;BME280;33098;52.400;16.880;2023-05-19T05:59:19;101901.27;;;14.29;56.90
24336;BME280;33098;52.400;16.880;2023-05-19T06:02:00;101902.63;;;14.30;57.12
24336;BME280;33098;52.400;16.880;2023-05-19T06:04:26;101902.45;;;14.35;57.24
24336;BME280;33098;52.400;16.880;2023-05-19T06:06:54;101905.59;;;14.43;57.23
24336;BME280;33098;52.400;16.880;2023-05-19T06:09:29;101907.37;;;14.53;57.23
24336;BME280;33098;52.400;16.880;2023-05-19T06:11:57;101906.88;;;14.66;57.19
24336;BME280;33098;52.400;16.880;2023-05-19T06:14:26;101909.42;;;14.75;57.11
24336;BME280;33098;52.400;16.880;2023-05-19T06:17:15;101911.20;;;14.82;56.82
24336;BME280;33098;52.400;16.880;2023-05-19T06:19:42;101908.32;;;14.87;56.87
24336;BME280;33098;52.400;16.880;2023-05-19T06:22:09;101911.21;;;14.97;56.90
24336;BME280;33098;52.400;16.880;2023-05-19T06:24:39;101910.98;;;15.07;56.83
24336;BME280;33098;52.400;16.880;2023-05-19T06:27:10;101915.88;;;15.16;56.77
24336;BME280;33098;52.400;16.880;2023-05-19T06:29:37;101915.13;;;15.16;56.51
24336;BME280;33098;52.400;16.880;2023-05-19T06:32:06;101919.33;;;15.23;56.57
24336;BME280;33098;52.400;16.880;2023-05-19T06:34:34;101918.45;;;15.35;56.52
24336;BME280;33098;52.400;16.880;2023-05-19T06:37:02;101916.84;;;15.46;56.36
24336;BME280;33098;52.400;16.880;2023-05-19T06:39:30;101921.23;;;15.57;56.29
24336;BME280;33098;52.400;16.880;2023-05-19T06:41:59;101916.92;;;15.71;56.27
24336;BME280;33098;52.400;16.880;2023-05-19T06:44:44;101919.95;;;15.85;56.06
24336;BME280;33098;52.400;16.880;2023-05-19T06:47:12;101919.10;;;15.97;55.85
24336;BME280;33098;52.400;16.880;2023-05-19T06:49:41;101922.43;;;16.09;55.70
24336;BME280;33098;52.400;16.880;2023-05-19T06:52:10;101923.52;;;16.16;55.39
24336;BME280;33098;52.400;16.880;2023-05-19T06:54:37;101921.42;;;16.22;55.26
24336;BME280;33098;52.400;16.880;2023-05-19T06:57:07;101919.78;;;16.29;55.28
24336;BME280;33098;52.400;16.880;2023-05-19T06:59:34;101923.48;;;16.35;54.99
24336;BME280;33098;52.400;16.880;2023-05-19T07:02:04;101922.53;;;16.38;54.90
24336;BME280;33098;52.400;16.880;2023-05-19T07:04:38;101923.52;;;16.38;54.71
24336;BME280;33098;52.400;16.880;2023-05-19T07:07:10;101923.23;;;16.33;54.47
24336;BME280;33098;52.400;16.880;2023-05-19T07:09:44;101927.55;;;16.29;54.49
24336;BME280;33098;52.400;16.880;2023-05-19T07:12:10;101927.36;;;16.26;54.53
24336;BME280;33098;52.400;16.880;2023-05-19T07:14:39;101931.63;;;16.25;54.31
24336;BME280;33098;52.400;16.880;2023-05-19T07:17:13;101927.55;;;16.24;54.46
24336;BME280;33098;52.400;16.880;2023-05-19T07:19:43;101928.04;;;16.31;54.40
24336;BME280;33098;52.400;16.880;2023-05-19T07:22:18;101926.15;;;16.35;54.42
24336;BME280;33098;52.400;16.880;2023-05-19T07:24:45;101922.73;;;16.42;54.39
24336;BME280;33098;52.400;16.880;2023-05-19T07:27:15;101924.80;;;16.49;54.42
24336;BME280;33098;52.400;16.880;2023-05-19T07:29:47;101925.55;;;16.60;54.30
24336;BME280;33098;52.400;16.880;2023-05-19T07:32:14;101920.01;;;16.71;54.14
24336;BME280;33098;52.400;16.880;2023-05-19T07:34:42;101920.40;;;16.79;54.13
24336;BME280;33098;52.400;16.880;2023-05-19T07:37:09;101918.36;;;16.87;53.88
24336;BME280;33098;52.400;16.880;2023-05-19T07:39:38;101920.10;;;16.90;53.80
24336;BME280;33098;52.400;16.880;2023-05-19T07:42:05;101924.95;;;16.95;53.81
24336;BME280;33098;52.400;16.880;2023-05-19T07:44:35;101929.39;;;16.97;53.78
24336;BME280;33098;52.400;16.880;2023-05-19T07:47:04;101924.27;;;17.01;53.66
24336;BME280;33098;52.400;16.880;2023-05-19T07:49:31;101917.52;;;17.06;53.54
24336;BME280;33098;52.400;16.880;2023-05-19T07:51:58;101911.33;;;17.10;53.44
24336;BME280;33098;52.400;16.880;2023-05-19T07:54:39;101909.92;;;17.18;53.37
24336;BME280;33098;52.400;16.880;2023-05-19T07:57:06;101912.55;;;17.26;53.32
24336;BME280;33098;52.400;16.880;2023-05-19T07:59:43;101911.08;;;17.28;53.22
24336;BME280;33098;52.400;16.880;2023-05-19T08:02:13;101909.41;;;17.35;53.27
24336;BME280;33098;52.400;16.880;2023-05-19T08:04:40;101907.23;;;17.46;53.25
24336;BME280;33098;52.400;16.880;2023-05-19T08:07:07;101906.41;;;17.56;53.03
24336;BME280;33098;52.400;16.880;2023-05-19T08:09:37;101909.71;;;17.57;52.96
24336;BME280;33098;52.400;16.880;2023-05-19T08:12:04;101905.68;;;17.64;52.90
24336;BME280;33098;52.400;16.880;2023-05-19T08:14:31;101904.20;;;17.67;52.76
24336;BME280;33098;52.400;16.880;2023-05-19T08:17:02;101907.76;;;17.68;52.70
24336;BME280;33098;52.400;16.880;2023-05-19T08:19:30;101904.73;;;17.69;52.55
24336;BME280;33098;52.400;16.880;2023-05-19T08:21:57;101905.65;;;17.71;52.59
24336;BME280;33098;52.400;16.880;2023-05-19T08:24:26;101904.50;;;17.76;52.56
24336;BME280;33098;52.400;16.880;2023-05-19T08:27:05;101904.20;;;17.79;52.48
24336;BME280;33098;52.400;16.880;2023-05-19T08:29:35;101905.17;;;17.81;52.45
24336;BME280;33098;52.400;16.880;2023-05-19T08:32:04;101909.47;;;17.83;52.58
24336;BME280;33098;52.400;16.880;2023-05-19T08:34:31;101910.23;;;17.89;52.49
24336;BME280;33098;52.400;16.880;2023-05-19T08:36:58;101909.56;;;17.91;52.28
24336;BME280;33098;52.400;16.880;2023-05-19T08:39:25;101914.84;;;17.88;52.26
24336;BME280;33098;52.400;16.880;2023-05-19T08:41:53;101909.71;;;17.91;52.35
24336;BME280;33098;52.400;16.880;2023-05-19T08:44:20;101906.23;;;17.96;52.26
24336;BME280;33098;52.400;16.880;2023-05-19T08:46:59;101904.77;;;17.99;52.05
24336;BME280;33098;52.400;16.880;2023-05-19T08:49:32;101901.49;;;17.99;52.07
24336;BME280;33098;52.400;16.880;2023-05-19T08:55:24;101901.96;;;17.95;51.98
24336;BME280;33098;52.400;16.880;2023-05-19T08:57:53;101901.34;;;18.03;52.01
24336;BME280;33098;52.400;16.880;2023-05-19T09:00:21;101899.76;;;18.10;51.92
24336;BME280;33098;52.400;16.880;2023-05-19T09:02:48;101901.40;;;18.14;51.80
24336;BME280;33098;52.400;16.880;2023-05-19T09:05:18;101902.88;;;18.22;51.84
24336;BME280;33098;52.400;16.880;2023-05-19T09:07:53;101900.65;;;18.19;51.54
24336;BME280;33098;52.400;16.880;2023-05-19T09:10:20;101901.28;;;18.16;51.89
24336;BME280;33098;52.400;16.880;2023-05-19T09:12:49;101900.40;;;18.24;51.79
24336;BME280;33098;52.400;16.880;2023-05-19T09:15:19;101895.52;;;18.32;51.64
24336;BME280;33098;52.400;16.880;2023-05-19T09:17:50;101896.85;;;18.35;51.70
24336;BME280;33098;52.400;16.880;2023-05-19T09:20:17;101897.88;;;18.42;51.56
24336;BME280;33098;52.400;16.880;2023-05-19T09:22:47;101896.77;;;18.51;51.49
24336;BME280;33098;52.400;16.880;2023-05-19T09:25:23;101896.67;;;18.60;51.33
24336;BME280;33098;52.400;16.880;2023-05-19T09:27:53;101893.45;;;18.71;51.17
24336;BME280;33098;52.400;16.880;2023-05-19T09:30:22;101889.20;;;18.81;51.20
24336;BME280;33098;52.400;16.880;2023-05-19T09:32:50;101891.36;;;18.93;51.16
24336;BME280;33098;52.400;16.880;2023-05-19T09:35:21;101888.88;;;19.03;50.88
24336;BME280;33098;52.400;16.880;2023-05-19T09:37:47;101892.43;;;19.09;50.66
24336;BME280;33098;52.400;16.880;2023-05-19T09:40:14;101888.83;;;19.11;50.51
24336;BME280;33098;52.400;16.880;2023-05-19T09:42:45;101890.67;;;19.10;50.29
24336;BME280;33098;52.400;16.880;2023-05-19T09:45:15;101885.81;;;19.13;50.23
24336;BME280;33098;52.400;16.880;2023-05-19T09:47:42;101882.60;;;19.12;50.08
24336;BME280;33098;52.400;16.880;2023-05-19T09:50:10;101884.65;;;19.09;50.18
24336;BME280;33098;52.400;16.880;2023-05-19T09:52:38;101894.05;;;19.09;50.03
24336;BME280;33098;52.400;16.880;2023-05-19T09:55:11;101892.45;;;19.01;49.74
24336;BME280;33098;52.400;16.880;2023-05-19T09:57:48;101892.32;;;18.89;49.72
24336;BME280;33098;52.400;16.880;2023-05-19T10:00:19;101893.98;;;18.74;49.74
24336;BME280;33098;52.400;16.880;2023-05-19T10:02:52;101892.50;;;18.58;49.83
24336;BME280;33098;52.400;16.880;2023-05-19T10:05:19;101890.70;;;18.52;50.06
24336;BME280;33098;52.400;16.880;2023-05-19T10:07:53;101889.41;;;18.53;50.01
24336;BME280;33098;52.400;16.880;2023-05-19T10:10:21;101888.73;;;18.52;49.84
24336;BME280;33098;52.400;16.880;2023-05-19T10:12:48;101886.29;;;18.51;49.72
24336;BME280;33098;52.400;16.880;2023-05-19T10:15:17;101886.70;;;18.46;49.58
24336;BME280;33098;52.400;16.880;2023-05-19T10:17:51;101884.23;;;18.44;49.49
24336;BME280;33098;52.400;16.880;2023-05-19T10:20:17;101883.41;;;18.45;49.46
24336;BME280;33098;52.400;16.880;2023-05-19T10:22:47;101881.42;;;18.47;49.43
24336;BME280;33098;52.400;16.880;2023-05-19T10:25:19;101886.37;;;18.46;49.32
24336;BME280;33098;52.400;16.880;2023-05-19T10:27:57;101889.17;;;18.43;49.17
24336;BME280;33098;52.400;16.880;2023-05-19T10:30:41;101884.95;;;18.32;49.29
24336;BME280;33098;52.400;16.880;2023-05-19T10:33:18;101879.29;;;18.25;49.18
24336;BME280;33098;52.400;16.880;2023-05-19T10:36:07;101885.54;;;18.13;49.32
24336;BME280;33098;52.400;16.880;2023-05-19T10:38:46;101888.58;;;18.07;49.42
24336;BME280;33098;52.400;16.880;2023-05-19T10:47:08;101888.13;;;17.87;49.83
24336;BME280;33098;52.400;16.880;2023-05-19T10:49:40;101891.13;;;17.75;49.85
24336;BME280;33098;52.400;16.880;2023-05-19T10:52:24;101888.91;;;17.65;50.00
24336;BME280;33098;52.400;16.880;2023-05-19T10:54:59;101888.91;;;17.57;50.05
24336;BME280;33098;52.400;16.880;2023-05-19T10:57:29;101892.02;;;17.45;50.11
24336;BME280;33098;52.400;16.880;2023-05-19T11:00:26;101892.55;;;17.39;50.26
24336;BME280;33098;52.400;16.880;2023-05-19T11:02:53;101888.23;;;17.35;50.44
24336;BME280;33098;52.400;16.880;2023-05-19T11:05:40;101892.16;;;17.35;50.47
24336;BME280;33098;52.400;16.880;2023-05-19T11:08:11;101888.45;;;17.35;50.49
24336;BME280;33098;52.400;16.880;2023-05-19T11:10:43;101888.95;;;17.33;50.56
24336;BME280;33098;52.400;16.880;2023-05-19T11:13:20;101890.39;;;17.35;50.58
24336;BME280;33098;52.400;16.880;2023-05-19T11:15:48;101885.73;;;17.31;50.58
24336;BME280;33098;52.400;16.880;2023-05-19T11:18:18;101884.45;;;17.33;50.80
24336;BME280;33098;52.400;16.880;2023-05-19T11:20:54;101885.14;;;17.44;50.92
24336;BME280;33098;52.400;16.880;2023-05-19T11:23:26;101877.25;;;17.59;50.88
24336;BME280;33098;52.400;16.880;2023-05-19T11:26:06;101879.15;;;17.72;50.88
24336;BME280;33098;52.400;16.880;2023-05-19T11:28:37;101877.58;;;17.84;50.76
24336;BME280;33098;52.400;16.880;2023-05-19T11:31:07;101876.48;;;17.99;50.84
24336;BME280;33098;52.400;16.880;2023-05-19T11:33:36;101873.86;;;18.25;50.77
24336;BME280;33098;52.400;16.880;2023-05-19T11:36:03;101873.91;;;18.47;50.61
24336;BME280;33098;52.400;16.880;2023-05-19T11:38:31;101867.95;;;18.61;50.38
24336;BME280;33098;52.400;16.880;2023-05-19T11:40:57;101869.77;;;18.77;50.30
24336;BME280;33098;52.400;16.880;2023-05-19T11:43:28;101869.80;;;18.83;49.99
24336;BME280;33098;52.400;16.880;2023-05-19T11:45:55;101863.72;;;18.92;50.16
24336;BME280;33098;52.400;16.880;2023-05-19T11:48:21;101868.61;;;19.14;50.18
24336;BME280;33098;52.400;16.880;2023-05-19T11:50:49;101868.29;;;19.35;49.98
24336;BME280;33098;52.400;16.880;2023-05-19T11:53:16;101870.16;;;19.61;49.71
24336;BME280;33098;52.400;16.880;2023-05-19T11:55:45;101874.33;;;19.74;49.27
24336;BME280;33098;52.400;16.880;2023-05-19T11:58:14;101874.77;;;19.77;48.91
24336;BME280;33098;52.400;16.880;2023-05-19T12:00:43;101877.86;;;19.73;48.79
24336;BME280;33098;52.400;16.880;2023-05-19T12:03:12;101882.30;;;19.68;48.59
24336;BME280;33098;52.400;16.880;2023-05-19T12:05:44;101882.42;;;19.68;48.63
24336;BME280;33098;52.400;16.880;2023-05-19T12:08:13;101878.88;;;19.75;48.47
24336;BME280;33098;52.400;16.880;2023-05-19T12:10:42;101875.77;;;19.89;48.33
24336;BME280;33098;52.400;16.880;2023-05-19T12:13:12;101875.60;;;20.02;48.34
24336;BME280;33098;52.400;16.880;2023-05-19T12:15:38;101877.42;;;20.06;48.09
24336;BME280;33098;52.400;16.880;2023-05-19T12:18:05;101882.42;;;19.97;47.85
24336;BME280;33098;52.400;16.880;2023-05-19T12:20:33;101885.97;;;19.90;47.98
24336;BME280;33098;52.400;16.880;2023-05-19T12:23:03;101878.51;;;19.87;47.97
24336;BME280;33098;52.400;16.880;2023-05-19T12:25:34;101875.86;;;19.83;48.05
24336;BME280;33098;52.400;16.880;2023-05-19T12:28:03;101875.42;;;19.78;47.91
24336;BME280;33098;52.400;16.880;2023-05-19T12:30:31;101871.00;;;19.60;47.71
24336;BME280;33098;52.400;16.880;2023-05-19T12:32:58;101871.11;;;19.49;48.15
24336;BME280;33098;52.400;16.880;2023-05-19T12:35:31;101865.23;;;19.48;48.16
24336;BME280;33098;52.400;16.880;2023-05-19T12:38:05;101860.65;;;19.37;48.00
24336;BME280;33098;52.400;16.880;2023-05-19T12:40:32;101861.51;;;19.28;48.07
24336;BME280;33098;52.400;16.880;2023-05-19T12:43:00;101868.85;;;19.23;48.10
24336;BME280;33098;52.400;16.880;2023-05-19T12:45:26;101865.64;;;19.25;48.31
24336;BME280;33098;52.400;16.880;2023-05-19T12:47:54;101865.71;;;19.30;48.19
24336;BME280;33098;52.400;16.880;2023-05-19T12:50:30;101860.57;;;19.31;48.08
24336;BME280;33098;52.400;16.880;2023-05-19T12:52:57;101862.95;;;19.30;47.86
24336;BME280;33098;52.400;16.880;2023-05-19T12:55:25;101864.61;;;19.22;47.78
24336;BME280;33098;52.400;16.880;2023-05-19T12:57:52;101863.09;;;19.07;47.83
24336;BME280;33098;52.400;16.880;2023-05-19T13:00:22;101865.95;;;18.98;48.08
24336;BME280;33098;52.400;16.880;2023-05-19T13:02:58;101862.88;;;18.86;48.08
24336;BME280;33098;52.400;16.880;2023-05-19T13:05:32;101856.95;;;18.82;48.32
24336;BME280;33098;52.400;16.880;2023-05-19T13:08:05;101857.41;;;18.85;48.52
24336;BME280;33098;52.400;16.880;2023-05-19T13:10:34;101855.52;;;18.84;48.47
24336;BME280;33098;52.400;16.880;2023-05-19T13:13:02;101854.95;;;18.80;48.40
24336;BME280;33098;52.400;16.880;2023-05-19T13:15:31;101862.73;;;18.73;48.43
24336;BME280;33098;52.400;16.880;2023-05-19T13:18:01;101865.42;;;18.65;48.50
24336;BME280;33098;52.400;16.880;2023-05-19T13:20:29;101860.77;;;18.65;48.61
24336;BME280;33098;52.400;16.880;2023-05-19T13:22:55;101867.02;;;18.66;48.61